Time,TemperatureF,DewpointF,PressureIn,WindDirection,WindDirectionDegrees,WindSpeedMPH,WindSpeedGustMPH,Humidity,HourlyPrecipIn,Conditions,Clouds,dailyrainin,SoftwareType,DateUTC
2013-04-20 00:04:00,48.2,45.7,30.07,WNW,302,0.0,12.0,91,0.00,,,0.28,Wunderground v.1.13,2013-04-20 05:04:00,
2013-04-20 00:09:00,48.2,45.7,30.07,WNW,302,0.0,12.0,91,0.00,,,0.00,Wunderground v.1.13,2013-04-20 05:09:00,
2013-04-20 00:14:00,48.0,45.5,30.07,WNW,302,0.0,12.0,91,0.00,,,0.00,Wunderground v.1.13,2013-04-20 05:14:00,
2013-04-20 00:19:00,47.9,45.1,30.07,WNW,302,0.0,12.0,90,0.00,,,0.00,Wunderground v.1.13,2013-04-20 05:19:00,
2013-04-20 00:25:00,47.7,45.2,30.08,WNW,302,0.0,12.0,91,0.00,,,0.00,Wunderground v.1.13,2013-04-20 05:25:00,
2013-04-20 00:30:00,47.7,45.2,30.08,WNW,302,0.0,12.0,91,0.00,,,0.00,Wunderground v.1.13,2013-04-20 05:30:00,
2013-04-20 00:35:00,47.7,45.2,30.08,WNW,302,0.0,12.0,91,0.00,,,0.00,Wunderground v.1.13,2013-04-20 05:35:00,
2013-04-20 00:41:00,47.7,44.9,30.08,WNW,302,0.0,12.0,90,0.00,,,0.00,Wunderground v.1.13,2013-04-20 05:41:00,
2013-04-20 00:46:00,47.7,44.9,30.08,WNW,302,0.0,12.0,90,0.00,,,0.00,Wunderground v.1.13,2013-04-20 05:46:00,
2013-04-20 00:51:00,47.7,44.9,30.08,WNW,302,0.0,12.0,90,0.00,,,0.00,Wunderground v.1.13,2013-04-20 05:51:00,
2013-04-20 00:56:00,47.7,44.9,30.08,WNW,302,0.0,12.0,90,0.00,,,0.00,Wunderground v.1.13,2013-04-20 05:56:00,
2013-04-20 01:02:00,47.7,44.9,30.08,WNW,302,0.0,12.0,90,0.00,,,0.00,Wunderground v.1.13,2013-04-20 06:02:00,
2013-04-20 01:07:00,47.4,44.6,30.08,WNW,302,0.0,12.0,90,0.00,,,0.00,Wunderground v.1.13,2013-04-20 06:07:00,
2013-04-20 01:12:00,47.3,44.5,30.08,WNW,302,0.0,12.0,90,0.00,,,0.00,Wunderground v.1.13,2013-04-20 06:12:00,
2013-04-20 01:18:00,47.1,44.3,30.08,WNW,302,0.0,12.0,90,0.00,,,0.00,Wunderground v.1.13,2013-04-20 06:18:00,
2013-04-20 01:23:00,47.0,43.9,30.08,WNW,302,0.0,12.0,89,0.00,,,0.00,Wunderground v.1.13,2013-04-20 06:23:00,
2013-04-20 01:28:00,46.8,43.7,30.08,WNW,302,0.0,12.0,89,0.00,,,0.00,Wunderground v.1.13,2013-04-20 06:28:00,
2013-04-20 01:34:00,46.7,43.6,30.08,NW,306,0.0,12.0,89,0.00,,,0.00,Wunderground v.1.13,2013-04-20 06:34:00,
2013-04-20 01:40:00,46.4,43.3,30.08,NNW,333,0.0,12.0,89,0.00,,,0.00,Wunderground v.1.13,2013-04-20 06:40:00,
2013-04-20 01:45:00,46.4,43.3,30.08,NNW,333,1.0,1.0,89,0.00,,,0.00,Wunderground v.1.13,2013-04-20 06:45:00,
2013-04-20 01:50:00,46.5,43.4,30.08,NNW,333,1.0,1.0,89,0.00,,,0.00,Wunderground v.1.13,2013-04-20 06:50:00,
2013-04-20 01:56:00,46.5,43.4,30.07,NNW,333,0.0,12.0,89,0.00,,,0.00,Wunderground v.1.13,2013-04-20 06:56:00,
2013-04-20 02:01:00,46.5,43.4,30.07,NNW,333,0.0,12.0,89,0.00,,,0.00,Wunderground v.1.13,2013-04-20 07:01:00,
2013-04-20 02:06:00,46.7,43.6,30.07,NNE,16,0.0,12.0,89,0.00,,,0.00,Wunderground v.1.13,2013-04-20 07:06:00,
2013-04-20 02:12:00,46.8,43.4,30.07,NNE,16,1.0,12.0,88,0.00,,,0.00,Wunderground v.1.13,2013-04-20 07:12:00,
2013-04-20 02:17:00,47.0,43.6,30.07,NNE,16,1.0,12.0,88,0.00,,,0.00,Wunderground v.1.13,2013-04-20 07:17:00,
2013-04-20 02:22:00,47.0,43.6,30.07,North,11,2.0,12.0,88,0.00,,,0.00,Wunderground v.1.13,2013-04-20 07:22:00,
2013-04-20 02:28:00,47.0,43.3,30.07,NNE,24,3.0,12.0,87,0.00,,,0.00,Wunderground v.1.13,2013-04-20 07:28:00,
2013-04-20 02:33:00,47.0,43.3,30.07,NNE,24,3.0,12.0,87,0.00,,,0.00,Wunderground v.1.13,2013-04-20 07:33:00,
2013-04-20 02:38:00,47.0,43.3,30.08,NNE,17,2.0,12.0,87,0.00,,,0.00,Wunderground v.1.13,2013-04-20 07:38:00,
2013-04-20 02:44:00,47.1,43.4,30.08,NNE,18,0.0,12.0,87,0.00,,,0.00,Wunderground v.1.13,2013-04-20 07:44:00,
2013-04-20 02:50:00,47.0,43.0,30.08,NNE,18,0.0,12.0,86,0.00,,,0.00,Wunderground v.1.13,2013-04-20 07:50:00,
2013-04-20 02:55:00,46.8,42.8,30.09,NNE,18,0.0,12.0,86,0.00,,,0.00,Wunderground v.1.13,2013-04-20 07:55:00,
2013-04-20 03:00:00,46.7,42.7,30.09,NNE,18,0.0,12.0,86,0.00,,,0.00,Wunderground v.1.13,2013-04-20 08:00:00,
2013-04-20 03:06:00,46.5,42.5,30.09,NNE,18,0.0,12.0,86,0.00,,,0.00,Wunderground v.1.13,2013-04-20 08:06:00,
2013-04-20 03:11:00,46.4,42.4,30.09,NNE,18,0.0,12.0,86,0.00,,,0.00,Wunderground v.1.13,2013-04-20 08:11:00,
2013-04-20 03:16:00,46.4,42.4,30.09,NNE,18,0.0,12.0,86,0.00,,,0.00,Wunderground v.1.13,2013-04-20 08:16:00,
2013-04-20 03:22:00,46.4,42.4,30.09,NNE,18,0.0,12.0,86,0.00,,,0.00,Wunderground v.1.13,2013-04-20 08:22:00,
2013-04-20 03:27:00,46.4,42.4,30.09,NNE,18,0.0,12.0,86,0.00,,,0.00,Wunderground v.1.13,2013-04-20 08:27:00,
2013-04-20 03:32:00,46.4,42.4,30.09,NNE,18,0.0,12.0,86,0.00,,,0.00,Wunderground v.1.13,2013-04-20 08:32:00,
2013-04-20 03:37:00,46.2,42.2,30.09,NE,42,0.0,12.0,86,0.00,,,0.00,Wunderground v.1.13,2013-04-20 08:37:00,
2013-04-20 03:43:00,46.1,42.1,30.09,NE,42,0.0,12.0,86,0.00,,,0.00,Wunderground v.1.13,2013-04-20 08:43:00,
2013-04-20 03:48:00,46.0,42.0,30.09,NE,38,0.0,12.0,86,0.00,,,0.00,Wunderground v.1.13,2013-04-20 08:48:00,
2013-04-20 03:53:00,46.0,42.0,30.09,NNE,27,0.0,12.0,86,0.00,,,0.00,Wunderground v.1.13,2013-04-20 08:53:00,
2013-04-20 03:59:00,46.0,42.0,30.09,NNE,24,0.0,12.0,86,0.00,,,0.00,Wunderground v.1.13,2013-04-20 08:59:00,
2013-04-20 04:04:00,45.8,41.9,30.09,NNE,23,1.0,12.0,86,0.00,,,0.00,Wunderground v.1.13,2013-04-20 09:04:00,
2013-04-20 04:09:00,45.7,41.8,30.09,NNE,30,1.0,12.0,86,0.00,,,0.00,Wunderground v.1.13,2013-04-20 09:09:00,
2013-04-20 04:14:00,45.7,41.8,30.09,NNE,30,1.0,12.0,86,0.00,,,0.00,Wunderground v.1.13,2013-04-20 09:14:00,
2013-04-20 04:20:00,45.5,41.6,30.09,NNE,31,0.0,12.0,86,0.00,,,0.00,Wunderground v.1.13,2013-04-20 09:20:00,
2013-04-20 04:25:00,45.4,41.5,30.08,NNE,28,0.0,12.0,86,0.00,,,0.00,Wunderground v.1.13,2013-04-20 09:25:00,
2013-04-20 04:30:00,45.2,41.3,30.08,NNE,28,0.0,12.0,86,0.00,,,0.00,Wunderground v.1.13,2013-04-20 09:30:00,
2013-04-20 04:36:00,45.1,41.2,30.09,NNE,28,0.0,12.0,86,0.00,,,0.00,Wunderground v.1.13,2013-04-20 09:36:00,
2013-04-20 04:41:00,45.1,41.2,30.09,NNE,28,0.0,12.0,86,0.00,,,0.00,Wunderground v.1.13,2013-04-20 09:41:00,
2013-04-20 04:46:00,44.9,41.0,30.09,NE,45,0.0,12.0,86,0.00,,,0.00,Wunderground v.1.13,2013-04-20 09:46:00,
2013-04-20 04:51:00,44.9,41.0,30.09,NE,45,0.0,12.0,86,0.00,,,0.00,Wunderground v.1.13,2013-04-20 09:51:00,
2013-04-20 04:57:00,45.1,41.2,30.09,NNE,32,1.0,12.0,86,0.00,,,0.00,Wunderground v.1.13,2013-04-20 09:57:00,
2013-04-20 05:02:00,44.9,41.0,30.09,NE,45,2.0,12.0,86,0.00,,,0.00,Wunderground v.1.13,2013-04-20 10:02:00,
2013-04-20 05:07:00,44.9,41.0,30.09,NNE,31,3.0,12.0,86,0.00,,,0.00,Wunderground v.1.13,2013-04-20 10:07:00,
2013-04-20 05:12:00,45.1,41.2,30.09,NNE,27,2.0,12.0,86,0.00,,,0.00,Wunderground v.1.13,2013-04-20 10:12:00,
2013-04-20 05:17:00,44.9,41.0,30.09,NNE,31,2.0,12.0,86,0.00,,,0.00,Wunderground v.1.13,2013-04-20 10:17:00,
2013-04-20 05:23:00,44.9,40.7,30.09,North,10,2.0,12.0,85,0.00,,,0.00,Wunderground v.1.13,2013-04-20 10:23:00,
2013-04-20 05:28:00,44.9,40.7,30.09,NNE,17,1.0,12.0,85,0.00,,,0.00,Wunderground v.1.13,2013-04-20 10:28:00,
2013-04-20 05:33:00,44.9,41.0,30.09,NE,45,2.0,12.0,86,0.00,,,0.00,Wunderground v.1.13,2013-04-20 10:33:00,
2013-04-20 05:38:00,44.8,40.9,30.09,NNE,30,2.0,12.0,86,0.00,,,0.00,Wunderground v.1.13,2013-04-20 10:38:00,
2013-04-20 05:43:00,44.8,40.9,30.09,NNE,24,2.0,12.0,86,0.00,,,0.00,Wunderground v.1.13,2013-04-20 10:43:00,
2013-04-20 05:49:00,44.8,40.9,30.09,NNE,23,0.0,12.0,86,0.00,,,0.00,Wunderground v.1.13,2013-04-20 10:49:00,
2013-04-20 05:54:00,44.6,40.7,30.10,NNE,23,0.0,12.0,86,0.00,,,0.00,Wunderground v.1.13,2013-04-20 10:54:00,
2013-04-20 05:59:00,44.6,40.7,30.10,NNE,23,0.0,12.0,86,0.00,,,0.00,Wunderground v.1.13,2013-04-20 10:59:00,
2013-04-20 06:05:00,44.5,40.6,30.10,NNE,23,0.0,12.0,86,0.00,,,0.00,Wunderground v.1.13,2013-04-20 11:05:00,
2013-04-20 06:10:00,44.5,40.6,30.10,NNE,23,0.0,12.0,86,0.00,,,0.00,Wunderground v.1.13,2013-04-20 11:10:00,
2013-04-20 06:15:00,44.5,40.9,30.10,NNE,23,0.0,12.0,87,0.00,,,0.00,Wunderground v.1.13,2013-04-20 11:15:00,
2013-04-20 06:20:00,44.6,41.0,30.10,NNE,23,0.0,12.0,87,0.00,,,0.00,Wunderground v.1.13,2013-04-20 11:20:00,
2013-04-20 06:25:00,44.6,41.0,30.11,ENE,66,0.0,12.0,87,0.00,,,0.00,Wunderground v.1.13,2013-04-20 11:25:00,
2013-04-20 06:31:00,44.5,40.9,30.11,ENE,66,0.0,12.0,87,0.00,,,0.00,Wunderground v.1.13,2013-04-20 11:31:00,
2013-04-20 06:36:00,44.5,40.9,30.12,ENE,66,0.0,12.0,87,0.00,,,0.00,Wunderground v.1.13,2013-04-20 11:36:00,
2013-04-20 06:41:00,44.5,40.9,30.12,ENE,66,0.0,12.0,87,0.00,,,0.00,Wunderground v.1.13,2013-04-20 11:41:00,
2013-04-20 06:46:00,44.3,41.0,30.12,ENE,66,0.0,12.0,88,0.00,,,0.00,Wunderground v.1.13,2013-04-20 11:46:00,
2013-04-20 06:51:00,44.2,40.9,30.12,ENE,66,0.0,12.0,88,0.00,,,0.00,Wunderground v.1.13,2013-04-20 11:51:00,
2013-04-20 06:57:00,44.1,40.5,30.12,ENE,66,0.0,12.0,87,0.00,,,0.00,Wunderground v.1.13,2013-04-20 11:57:00,
2013-04-20 07:02:00,44.1,40.8,30.12,ENE,66,0.0,12.0,88,0.00,,,0.00,Wunderground v.1.13,2013-04-20 12:02:00,
2013-04-20 07:07:00,44.1,40.8,30.13,ENE,66,0.0,12.0,88,0.00,,,0.00,Wunderground v.1.13,2013-04-20 12:07:00,
2013-04-20 07:13:00,44.2,40.9,30.13,ENE,66,0.0,12.0,88,0.00,,,0.00,Wunderground v.1.13,2013-04-20 12:13:00,
2013-04-20 07:18:00,44.3,41.3,30.13,ENE,66,0.0,12.0,89,0.00,,,0.00,Wunderground v.1.13,2013-04-20 12:18:00,
2013-04-20 07:23:00,44.6,41.6,30.14,ENE,66,0.0,12.0,89,0.00,,,0.00,Wunderground v.1.13,2013-04-20 12:23:00,
2013-04-20 07:28:00,44.9,41.9,30.14,ENE,66,0.0,12.0,89,0.00,,,0.00,Wunderground v.1.13,2013-04-20 12:28:00,
2013-04-20 07:34:00,45.2,42.2,30.14,ENE,66,0.0,12.0,89,0.00,,,0.00,Wunderground v.1.13,2013-04-20 12:34:00,
2013-04-20 07:40:00,45.7,42.6,30.14,ENE,66,0.0,12.0,89,0.00,,,0.00,Wunderground v.1.13,2013-04-20 12:40:00,
2013-04-20 07:45:00,46.2,43.1,30.14,NE,55,0.0,12.0,89,0.00,,,0.00,Wunderground v.1.13,2013-04-20 12:45:00,
2013-04-20 07:51:00,46.8,43.7,30.14,NE,52,0.0,12.0,89,0.00,,,0.00,Wunderground v.1.13,2013-04-20 12:51:00,
2013-04-20 07:56:00,47.3,43.9,30.14,NNE,32,1.0,12.0,88,0.00,,,0.00,Wunderground v.1.13,2013-04-20 12:56:00,
2013-04-20 08:01:00,47.4,44.0,30.14,ENE,61,1.0,12.0,88,0.00,,,0.00,Wunderground v.1.13,2013-04-20 13:01:00,
2013-04-20 08:06:00,47.9,44.2,30.14,NE,41,0.0,12.0,87,0.00,,,0.00,Wunderground v.1.13,2013-04-20 13:06:00,
2013-04-20 08:12:00,48.2,44.2,30.14,NE,38,2.0,12.0,86,0.00,,,0.00,Wunderground v.1.13,2013-04-20 13:12:00,
2013-04-20 08:17:00,48.5,44.2,30.14,NNE,25,1.0,12.0,85,0.00,,,0.00,Wunderground v.1.13,2013-04-20 13:17:00,
2013-04-20 08:22:00,48.6,44.3,30.14,NNE,25,0.0,12.0,85,0.00,,,0.00,Wunderground v.1.13,2013-04-20 13:22:00,
2013-04-20 08:28:00,49.1,44.8,30.14,NNE,23,0.0,12.0,85,0.00,,,0.00,Wunderground v.1.13,2013-04-20 13:28:00,
2013-04-20 08:33:00,49.5,45.2,30.14,NE,51,0.0,12.0,85,0.00,,,0.00,Wunderground v.1.13,2013-04-20 13:33:00,
2013-04-20 08:38:00,49.8,44.8,30.14,SSE,164,1.0,12.0,83,0.00,,,0.00,Wunderground v.1.13,2013-04-20 13:38:00,
2013-04-20 08:44:00,50.1,44.5,30.14,NE,48,1.0,12.0,81,0.00,,,0.00,Wunderground v.1.13,2013-04-20 13:44:00,
2013-04-20 08:49:00,50.4,44.8,30.14,East,88,1.0,12.0,81,0.00,,,0.00,Wunderground v.1.13,2013-04-20 13:49:00,
2013-04-20 08:54:00,50.7,44.4,30.14,SSE,148,1.0,12.0,79,0.00,,,0.00,Wunderground v.1.13,2013-04-20 13:54:00,
2013-04-20 08:59:00,51.1,44.8,30.14,ENE,75,0.0,12.0,79,0.00,,,0.00,Wunderground v.1.13,2013-04-20 13:59:00,
2013-04-20 09:05:00,51.4,45.1,30.14,East,85,0.0,12.0,79,0.00,,,0.00,Wunderground v.1.13,2013-04-20 14:05:00,
2013-04-20 09:10:00,51.7,44.7,30.15,NE,51,0.0,12.0,77,0.00,,,0.00,Wunderground v.1.13,2013-04-20 14:10:00,
2013-04-20 09:15:00,52.0,44.7,30.15,NE,56,0.0,12.0,76,0.00,,,0.00,Wunderground v.1.13,2013-04-20 14:15:00,
2013-04-20 09:20:00,52.2,44.9,30.15,NE,44,1.0,1.0,76,0.00,,,0.00,Wunderground v.1.13,2013-04-20 14:20:00,
2013-04-20 09:26:00,52.3,44.3,30.15,NE,40,2.0,12.0,74,0.00,,,0.00,Wunderground v.1.13,2013-04-20 14:26:00,
2013-04-20 09:31:00,52.3,44.3,30.15,North,0,3.0,12.0,74,0.00,,,0.00,Wunderground v.1.13,2013-04-20 14:31:00,
2013-04-20 09:36:00,52.6,43.8,30.15,NNE,25,3.0,5.0,72,0.00,,,0.00,Wunderground v.1.13,2013-04-20 14:36:00,
2013-04-20 09:42:00,52.9,44.1,30.15,NE,37,2.0,12.0,72,0.00,,,0.00,Wunderground v.1.13,2013-04-20 14:42:00,
2013-04-20 09:47:00,53.3,44.5,30.15,West,263,1.0,12.0,72,0.00,,,0.00,Wunderground v.1.13,2013-04-20 14:47:00,
2013-04-20 09:52:00,53.5,44.3,30.16,NNE,25,1.0,12.0,71,0.00,,,0.00,Wunderground v.1.13,2013-04-20 14:52:00,
2013-04-20 09:58:00,53.9,44.3,30.16,ESE,110,1.0,12.0,70,0.00,,,0.00,Wunderground v.1.13,2013-04-20 14:58:00,
2013-04-20 10:03:00,54.2,44.2,30.16,ENE,73,2.0,12.0,69,0.00,,,0.00,Wunderground v.1.13,2013-04-20 15:03:00,
2013-04-20 10:08:00,54.7,44.7,30.16,NNE,30,1.0,12.0,69,0.00,,,0.00,Wunderground v.1.13,2013-04-20 15:08:00,
2013-04-20 10:13:00,55.1,44.7,30.16,North,6,2.0,12.0,68,0.00,,,0.00,Wunderground v.1.13,2013-04-20 15:13:00,
2013-04-20 10:19:00,55.1,43.5,30.16,ENE,62,4.0,12.0,65,0.00,,,0.00,Wunderground v.1.13,2013-04-20 15:19:00,
2013-04-20 10:24:00,55.3,44.1,30.16,NE,54,3.0,12.0,66,0.00,,,0.00,Wunderground v.1.13,2013-04-20 15:24:00,
2013-04-20 10:30:00,55.7,44.1,30.16,SE,131,1.0,12.0,65,0.00,,,0.00,Wunderground v.1.13,2013-04-20 15:30:00,
2013-04-20 10:35:00,56.2,44.2,30.16,North,4,1.0,12.0,64,0.00,,,0.00,Wunderground v.1.13,2013-04-20 15:35:00,
2013-04-20 10:40:00,56.2,42.5,30.16,North,0,2.0,12.0,60,0.00,,,0.00,Wunderground v.1.13,2013-04-20 15:40:00,
2013-04-20 10:45:00,56.0,42.7,30.16,NNE,24,4.0,12.0,61,0.00,,,0.00,Wunderground v.1.13,2013-04-20 15:45:00,
2013-04-20 10:51:00,56.2,42.5,30.16,North,1,5.0,12.0,60,0.00,,,0.00,Wunderground v.1.13,2013-04-20 15:51:00,
2013-04-20 10:56:00,56.7,43.8,30.16,NNE,17,5.0,12.0,62,0.00,,,0.00,Wunderground v.1.13,2013-04-20 15:56:00,
2013-04-20 11:01:00,57.2,43.9,30.16,South,176,3.0,12.0,61,0.00,,,0.00,Wunderground v.1.13,2013-04-20 16:01:00,
2013-04-20 11:06:00,57.5,43.7,30.16,NNE,18,1.0,12.0,60,0.00,,,0.00,Wunderground v.1.13,2013-04-20 16:06:00,
2013-04-20 11:12:00,57.6,43.8,30.16,SE,136,2.0,12.0,60,0.00,,,0.00,Wunderground v.1.13,2013-04-20 16:12:00,
2013-04-20 11:17:00,58.1,44.7,30.16,West,263,1.0,12.0,61,0.00,,,0.00,Wunderground v.1.13,2013-04-20 16:17:00,
2013-04-20 11:22:00,58.7,44.8,30.15,ESE,107,1.0,12.0,60,0.00,,,0.00,Wunderground v.1.13,2013-04-20 16:22:00,
2013-04-20 11:28:00,58.7,44.0,30.15,NNE,16,1.0,12.0,58,0.00,,,0.00,Wunderground v.1.13,2013-04-20 16:28:00,
2013-04-20 11:33:00,58.9,44.6,30.15,NE,40,1.0,12.0,59,0.00,,,0.00,Wunderground v.1.13,2013-04-20 16:33:00,
2013-04-20 11:38:00,59.0,44.2,30.14,ENE,64,1.0,12.0,58,0.00,,,0.00,Wunderground v.1.13,2013-04-20 16:38:00,
2013-04-20 11:44:00,58.9,42.3,30.14,NE,49,3.0,12.0,54,0.00,,,0.00,Wunderground v.1.13,2013-04-20 16:44:00,
2013-04-20 11:49:00,58.9,42.3,30.14,NNE,18,4.0,12.0,54,0.00,,,0.00,Wunderground v.1.13,2013-04-20 16:49:00,
2013-04-20 11:54:00,59.0,42.4,30.13,NNE,28,5.0,12.0,54,0.00,,,0.00,Wunderground v.1.13,2013-04-20 16:54:00,
2013-04-20 11:59:00,59.3,42.2,30.13,NE,48,5.0,12.0,53,0.00,,,0.00,Wunderground v.1.13,2013-04-20 16:59:00,
2013-04-20 12:05:00,59.6,42.4,30.13,NNE,25,1.0,1.0,53,0.00,,,0.00,Wunderground v.1.13,2013-04-20 17:05:00,
2013-04-20 12:10:00,59.9,42.7,30.13,NE,37,1.0,12.0,53,0.00,,,0.00,Wunderground v.1.13,2013-04-20 17:10:00,
2013-04-20 12:15:00,60.4,43.2,30.13,NNE,16,2.0,2.0,53,0.00,,,0.00,Wunderground v.1.13,2013-04-20 17:15:00,
2013-04-20 12:21:00,60.7,43.0,30.12,NNE,27,1.0,12.0,52,0.00,,,0.00,Wunderground v.1.13,2013-04-20 17:21:00,
2013-04-20 12:26:00,61.0,42.7,30.12,ESE,120,0.0,12.0,51,0.00,,,0.00,Wunderground v.1.13,2013-04-20 17:26:00,
2013-04-20 12:31:00,61.0,41.7,30.12,NNE,18,1.0,12.0,49,0.00,,,0.00,Wunderground v.1.13,2013-04-20 17:31:00,
2013-04-20 12:36:00,61.2,41.3,30.11,NNE,23,2.0,12.0,48,0.00,,,0.00,Wunderground v.1.13,2013-04-20 17:36:00,
2013-04-20 12:42:00,61.2,41.3,30.11,NE,40,3.0,12.0,48,0.00,,,0.00,Wunderground v.1.13,2013-04-20 17:42:00,
2013-04-20 12:47:00,61.0,38.3,30.11,NNE,16,4.0,12.0,43,0.00,,,0.00,Wunderground v.1.13,2013-04-20 17:47:00,
2013-04-20 12:52:00,60.7,39.8,30.11,NNE,27,4.0,12.0,46,0.00,,,0.00,Wunderground v.1.13,2013-04-20 17:52:00,
2013-04-20 12:58:00,61.0,41.2,30.11,NNE,21,3.0,12.0,48,0.00,,,0.00,Wunderground v.1.13,2013-04-20 17:58:00,
2013-04-20 13:03:00,61.5,40.5,30.11,ENE,62,2.0,12.0,46,0.00,,,0.00,Wunderground v.1.13,2013-04-20 18:03:00,
2013-04-20 13:08:00,61.8,40.8,30.10,East,86,1.0,12.0,46,0.00,,,0.00,Wunderground v.1.13,2013-04-20 18:08:00,
2013-04-20 13:14:00,62.4,41.9,30.10,NE,42,1.0,12.0,47,0.00,,,0.00,Wunderground v.1.13,2013-04-20 18:14:00,
2013-04-20 13:20:00,62.9,41.8,30.10,NNE,14,1.0,1.0,46,0.00,,,0.00,Wunderground v.1.13,2013-04-20 18:20:00,
2013-04-20 13:25:00,63.2,42.6,30.09,ENE,71,1.0,1.0,47,0.00,,,0.00,Wunderground v.1.13,2013-04-20 18:25:00,
2013-04-20 13:30:00,63.2,40.9,30.09,NNE,28,1.0,1.0,44,0.00,,,0.00,Wunderground v.1.13,2013-04-20 18:30:00,
2013-04-20 13:36:00,62.9,40.0,30.09,North,0,3.0,8.0,43,0.00,,,0.00,Wunderground v.1.13,2013-04-20 18:36:00,
2013-04-20 13:41:00,62.7,41.0,30.09,ENE,64,4.0,12.0,45,0.00,,,0.00,Wunderground v.1.13,2013-04-20 18:41:00,
2013-04-20 13:46:00,63.1,39.6,30.09,NNE,16,3.0,6.0,42,0.00,,,0.00,Wunderground v.1.13,2013-04-20 18:46:00,
2013-04-20 13:52:00,63.1,40.8,30.08,NE,55,2.0,12.0,44,0.00,,,0.00,Wunderground v.1.13,2013-04-20 18:52:00,
2013-04-20 13:57:00,63.1,38.4,30.08,NNE,32,3.0,12.0,40,0.00,,,0.00,Wunderground v.1.13,2013-04-20 18:57:00,
2013-04-20 14:02:00,63.2,39.7,30.08,NNE,28,6.0,12.0,42,0.00,,,0.00,Wunderground v.1.13,2013-04-20 19:02:00,
2013-04-20 14:07:00,63.5,41.2,30.07,NNE,14,3.0,12.0,44,0.00,,,0.00,Wunderground v.1.13,2013-04-20 19:07:00,
2013-04-20 14:13:00,63.9,40.3,30.07,NNE,14,1.0,12.0,42,0.00,,,0.00,Wunderground v.1.13,2013-04-20 19:13:00,
2013-04-20 14:18:00,63.9,39.1,30.07,NE,54,2.0,12.0,40,0.00,,,0.00,Wunderground v.1.13,2013-04-20 19:18:00,
2013-04-20 14:23:00,64.3,40.7,30.07,NNE,27,2.0,12.0,42,0.00,,,0.00,Wunderground v.1.13,2013-04-20 19:23:00,
2013-04-20 14:29:00,64.0,39.2,30.07,NE,40,3.0,12.0,40,0.00,,,0.00,Wunderground v.1.13,2013-04-20 19:29:00,
2013-04-20 14:35:00,64.7,41.7,30.07,South,169,1.0,1.0,43,0.00,,,0.00,Wunderground v.1.13,2013-04-20 19:35:00,
2013-04-20 14:40:00,64.8,41.2,30.07,NE,42,1.0,12.0,42,0.00,,,0.00,Wunderground v.1.13,2013-04-20 19:40:00,
2013-04-20 14:45:00,65.0,40.7,30.07,North,357,1.0,12.0,41,0.00,,,0.00,Wunderground v.1.13,2013-04-20 19:45:00,
2013-04-20 14:51:00,64.5,39.0,30.06,NNE,24,3.0,12.0,39,0.00,,,0.00,Wunderground v.1.13,2013-04-20 19:51:00,
2013-04-20 14:56:00,64.7,39.8,30.06,ENE,69,4.0,6.0,40,0.00,,,0.00,Wunderground v.1.13,2013-04-20 19:56:00,
2013-04-20 15:01:00,65.0,40.7,30.06,ESE,110,2.0,12.0,41,0.00,,,0.00,Wunderground v.1.13,2013-04-20 20:01:00,
2013-04-20 15:06:00,65.0,40.1,30.06,North,352,3.0,12.0,40,0.00,,,0.00,Wunderground v.1.13,2013-04-20 20:06:00,
2013-04-20 15:12:00,65.0,40.7,30.06,NNE,28,5.0,12.0,41,0.00,,,0.00,Wunderground v.1.13,2013-04-20 20:12:00,
2013-04-20 15:17:00,65.0,39.4,30.06,NNE,27,4.0,7.0,39,0.00,,,0.00,Wunderground v.1.13,2013-04-20 20:17:00,
2013-04-20 15:22:00,65.2,40.3,30.05,North,0,3.0,12.0,40,0.00,,,0.00,Wunderground v.1.13,2013-04-20 20:22:00,
2013-04-20 15:27:00,65.5,41.2,30.05,NNE,17,1.0,12.0,41,0.00,,,0.00,Wunderground v.1.13,2013-04-20 20:27:00,
2013-04-20 15:32:00,65.8,42.1,30.05,East,93,1.0,12.0,42,0.00,,,0.00,Wunderground v.1.13,2013-04-20 20:32:00,
2013-04-20 15:38:00,66.1,41.7,30.04,NNE,24,1.0,12.0,41,0.00,,,0.00,Wunderground v.1.13,2013-04-20 20:38:00,
2013-04-20 15:43:00,66.3,41.2,30.04,NNE,32,1.0,12.0,40,0.00,,,0.00,Wunderground v.1.13,2013-04-20 20:43:00,
2013-04-20 15:49:00,66.3,41.9,30.04,NNE,14,1.0,12.0,41,0.00,,,0.00,Wunderground v.1.13,2013-04-20 20:49:00,
2013-04-20 15:54:00,66.1,41.7,30.04,NE,45,3.0,12.0,41,0.00,,,0.00,Wunderground v.1.13,2013-04-20 20:54:00,
2013-04-20 15:59:00,66.1,41.1,30.04,NE,48,3.0,14.0,40,0.00,,,0.00,Wunderground v.1.13,2013-04-20 20:59:00,
2013-04-20 16:04:00,65.6,40.6,30.04,North,0,4.0,12.0,40,0.00,,,0.00,Wunderground v.1.13,2013-04-20 21:04:00,
2013-04-20 16:09:00,66.0,41.6,30.04,ENE,69,3.0,12.0,41,0.00,,,0.00,Wunderground v.1.13,2013-04-20 21:09:00,
2013-04-20 16:14:00,66.3,41.2,30.04,ENE,58,1.0,12.0,40,0.00,,,0.00,Wunderground v.1.13,2013-04-20 21:14:00,
2013-04-20 16:19:00,66.3,40.6,30.04,NE,56,1.0,12.0,39,0.00,,,0.00,Wunderground v.1.13,2013-04-20 21:19:00,
2013-04-20 16:25:00,66.6,42.2,30.03,NNE,13,1.0,12.0,41,0.00,,,0.00,Wunderground v.1.13,2013-04-20 21:25:00,
2013-04-20 16:30:00,66.6,42.2,30.03,NNE,16,2.0,12.0,41,0.00,,,0.00,Wunderground v.1.13,2013-04-20 21:30:00,
2013-04-20 16:35:00,66.4,40.7,30.03,NNE,16,2.0,12.0,39,0.00,,,0.00,Wunderground v.1.13,2013-04-20 21:35:00,
2013-04-20 16:40:00,66.4,40.0,30.03,NE,45,4.0,12.0,38,0.00,,,0.00,Wunderground v.1.13,2013-04-20 21:40:00,
2013-04-20 16:45:00,66.4,40.7,30.03,NNE,20,5.0,5.0,39,0.00,,,0.00,Wunderground v.1.13,2013-04-20 21:45:00,
2013-04-20 16:51:00,66.8,41.0,30.03,NNE,27,2.0,12.0,39,0.00,,,0.00,Wunderground v.1.13,2013-04-20 21:51:00,
2013-04-20 16:56:00,66.8,41.0,30.03,NNE,13,4.0,12.0,39,0.00,,,0.00,Wunderground v.1.13,2013-04-20 21:56:00,
2013-04-20 17:01:00,66.3,39.9,30.03,NE,40,7.0,12.0,38,0.00,,,0.00,Wunderground v.1.13,2013-04-20 22:01:00,
2013-04-20 17:07:00,66.6,40.9,30.02,East,90,3.0,12.0,39,0.00,,,0.00,Wunderground v.1.13,2013-04-20 22:07:00,
2013-04-20 17:13:00,66.9,41.1,30.02,ENE,62,1.0,13.0,39,0.00,,,0.00,Wunderground v.1.13,2013-04-20 22:13:00,
2013-04-20 17:18:00,66.9,41.1,30.02,NNE,32,2.0,12.0,39,0.00,,,0.00,Wunderground v.1.13,2013-04-20 22:18:00,
2013-04-20 17:23:00,66.9,41.8,30.02,NNE,30,3.0,12.0,40,0.00,,,0.00,Wunderground v.1.13,2013-04-20 22:23:00,
2013-04-20 17:28:00,66.8,41.7,30.02,NNE,16,4.0,12.0,40,0.00,,,0.00,Wunderground v.1.13,2013-04-20 22:28:00,
2013-04-20 17:33:00,67.1,41.3,30.02,NNE,31,2.0,12.0,39,0.00,,,0.00,Wunderground v.1.13,2013-04-20 22:33:00,
2013-04-20 17:38:00,67.4,42.2,30.03,East,82,1.0,12.0,40,0.00,,,0.00,Wunderground v.1.13,2013-04-20 22:38:00,
2013-04-20 17:44:00,67.4,42.2,30.03,North,1,2.0,12.0,40,0.00,,,0.00,Wunderground v.1.13,2013-04-20 22:44:00,
2013-04-20 17:49:00,67.3,42.1,30.03,NNE,20,2.0,12.0,40,0.00,,,0.00,Wunderground v.1.13,2013-04-20 22:49:00,
2013-04-20 17:54:00,67.1,41.3,30.03,ENE,59,2.0,12.0,39,0.00,,,0.00,Wunderground v.1.13,2013-04-20 22:54:00,
2013-04-20 17:59:00,67.1,42.6,30.03,East,83,2.0,12.0,41,0.00,,,0.00,Wunderground v.1.13,2013-04-20 22:59:00,
2013-04-20 18:04:00,67.1,42.0,30.03,NE,44,2.0,12.0,40,0.00,,,0.00,Wunderground v.1.13,2013-04-20 23:04:00,
2013-04-20 18:10:00,67.1,41.3,30.03,NE,45,1.0,1.0,39,0.00,,,0.00,Wunderground v.1.13,2013-04-20 23:10:00,
2013-04-20 18:15:00,67.3,41.5,30.03,NNE,24,1.0,12.0,39,0.00,,,0.00,Wunderground v.1.13,2013-04-20 23:15:00,
2013-04-20 18:20:00,67.1,41.3,30.03,NE,42,2.0,2.0,39,0.00,,,0.00,Wunderground v.1.13,2013-04-20 23:20:00,
2013-04-20 18:26:00,66.9,41.8,30.03,NNE,31,2.0,12.0,40,0.00,,,0.00,Wunderground v.1.13,2013-04-20 23:26:00,
2013-04-20 18:31:00,66.8,41.7,30.03,NNE,31,2.0,12.0,40,0.00,,,0.00,Wunderground v.1.13,2013-04-20 23:31:00,
2013-04-20 18:36:00,67.1,41.3,30.03,NNE,27,1.0,12.0,39,0.00,,,0.00,Wunderground v.1.13,2013-04-20 23:36:00,
2013-04-20 18:41:00,67.3,42.1,30.03,NNE,27,0.0,12.0,40,0.00,,,0.00,Wunderground v.1.13,2013-04-20 23:41:00,
2013-04-20 18:47:00,67.3,42.1,30.03,NNE,23,0.0,12.0,40,0.00,,,0.00,Wunderground v.1.13,2013-04-20 23:47:00,
2013-04-20 18:53:00,66.9,42.4,30.03,ENE,75,2.0,12.0,41,0.00,,,0.00,Wunderground v.1.13,2013-04-20 23:53:00,
2013-04-20 18:58:00,66.9,42.4,30.03,ENE,75,2.0,12.0,41,0.00,,,0.00,Wunderground v.1.13,2013-04-20 23:58:00,
2013-04-20 19:03:00,66.9,43.0,30.03,ENE,75,0.0,12.0,42,0.00,,,0.00,Wunderground v.1.13,2013-04-21 00:03:00,
2013-04-20 19:09:00,66.9,43.0,30.04,NE,41,0.0,12.0,42,0.00,,,0.00,Wunderground v.1.13,2013-04-21 00:09:00,
2013-04-20 19:14:00,66.6,42.2,30.04,NNE,18,0.0,12.0,41,0.00,,,0.00,Wunderground v.1.13,2013-04-21 00:14:00,
2013-04-20 19:19:00,66.1,42.3,30.04,NNE,18,0.0,12.0,42,0.00,,,0.00,Wunderground v.1.13,2013-04-21 00:19:00,
2013-04-20 19:24:00,65.6,42.5,30.04,NNE,18,0.0,12.0,43,0.00,,,0.00,Wunderground v.1.13,2013-04-21 00:24:00,
2013-04-20 19:30:00,64.7,43.4,30.04,NNE,18,0.0,12.0,46,0.00,,,0.00,Wunderground v.1.13,2013-04-21 00:30:00,
2013-04-20 19:35:00,63.9,43.3,30.04,NNE,18,0.0,12.0,47,0.00,,,0.00,Wunderground v.1.13,2013-04-21 00:35:00,
2013-04-20 19:40:00,63.2,42.6,30.04,NNE,18,0.0,12.0,47,0.00,,,0.00,Wunderground v.1.13,2013-04-21 00:40:00,
2013-04-20 19:46:00,62.4,43.0,30.04,NNE,18,0.0,12.0,49,0.00,,,0.00,Wunderground v.1.13,2013-04-21 00:46:00,
2013-04-20 19:51:00,62.0,42.6,30.04,NNE,18,0.0,12.0,49,0.00,,,0.00,Wunderground v.1.13,2013-04-21 00:51:00,
2013-04-20 19:56:00,61.5,42.2,30.04,NNE,18,0.0,12.0,49,0.00,,,0.00,Wunderground v.1.13,2013-04-21 00:56:00,
2013-04-20 20:02:00,61.0,41.7,30.04,NNE,18,0.0,12.0,49,0.00,,,0.00,Wunderground v.1.13,2013-04-21 01:02:00,
2013-04-20 20:07:00,60.7,41.9,30.06,NNE,18,0.0,12.0,50,0.00,,,0.00,Wunderground v.1.13,2013-04-21 01:07:00,
2013-04-20 20:12:00,60.4,42.2,30.06,NNE,18,0.0,12.0,51,0.00,,,0.00,Wunderground v.1.13,2013-04-21 01:12:00,
2013-04-20 20:17:00,60.2,42.0,30.06,NNE,18,0.0,12.0,51,0.00,,,0.00,Wunderground v.1.13,2013-04-21 01:17:00,
2013-04-20 20:23:00,59.9,42.2,30.06,NNE,18,0.0,12.0,52,0.00,,,0.00,Wunderground v.1.13,2013-04-21 01:23:00,
2013-04-20 20:28:00,59.6,42.4,30.06,NNE,18,0.0,12.0,53,0.00,,,0.00,Wunderground v.1.13,2013-04-21 01:28:00,
2013-04-20 20:33:00,59.3,42.6,30.06,NNE,18,0.0,12.0,54,0.00,,,0.00,Wunderground v.1.13,2013-04-21 01:33:00,
2013-04-20 20:38:00,59.2,42.6,30.07,NNE,18,0.0,12.0,54,0.00,,,0.00,Wunderground v.1.13,2013-04-21 01:38:00,
2013-04-20 20:44:00,58.7,43.0,30.07,NNE,18,0.0,12.0,56,0.00,,,0.00,Wunderground v.1.13,2013-04-21 01:44:00,
2013-04-20 20:49:00,58.6,42.9,30.07,NNE,18,0.0,12.0,56,0.00,,,0.00,Wunderground v.1.13,2013-04-21 01:49:00,
2013-04-20 20:54:00,58.3,43.6,30.07,NNE,18,0.0,12.0,58,0.00,,,0.00,Wunderground v.1.13,2013-04-21 01:54:00,
2013-04-20 21:00:00,58.1,44.3,30.07,NNE,18,0.0,12.0,60,0.00,,,0.00,Wunderground v.1.13,2013-04-21 02:00:00,
2013-04-20 21:05:00,57.8,44.0,30.07,NNE,18,0.0,12.0,60,0.00,,,0.00,Wunderground v.1.13,2013-04-21 02:05:00,
2013-04-20 21:10:00,57.5,43.7,30.08,NNE,18,0.0,12.0,60,0.00,,,0.00,Wunderground v.1.13,2013-04-21 02:10:00,
2013-04-20 21:16:00,57.3,44.0,30.08,NNE,18,0.0,12.0,61,0.00,,,0.00,Wunderground v.1.13,2013-04-21 02:16:00,
2013-04-20 21:21:00,57.0,44.1,30.09,NNE,18,0.0,12.0,62,0.00,,,0.00,Wunderground v.1.13,2013-04-21 02:21:00,
2013-04-20 21:26:00,56.9,44.0,30.09,NNE,18,0.0,12.0,62,0.00,,,0.00,Wunderground v.1.13,2013-04-21 02:26:00,
2013-04-20 21:31:00,56.6,44.1,30.09,NNE,18,0.0,12.0,63,0.00,,,0.00,Wunderground v.1.13,2013-04-21 02:31:00,
2013-04-20 21:37:00,56.5,44.5,30.09,NNE,18,0.0,12.0,64,0.00,,,0.00,Wunderground v.1.13,2013-04-21 02:37:00,
2013-04-20 21:42:00,56.3,44.7,30.09,NNE,18,0.0,12.0,65,0.00,,,0.00,Wunderground v.1.13,2013-04-21 02:42:00,
2013-04-20 21:47:00,56.2,44.6,30.09,NNE,18,0.0,12.0,65,0.00,,,0.00,Wunderground v.1.13,2013-04-21 02:47:00,
2013-04-20 21:53:00,56.0,44.4,30.09,NNE,18,0.0,12.0,65,0.00,,,0.00,Wunderground v.1.13,2013-04-21 02:53:00,
2013-04-20 21:58:00,55.9,44.7,30.09,NNE,18,0.0,12.0,66,0.00,,,0.00,Wunderground v.1.13,2013-04-21 02:58:00,
2013-04-20 22:03:00,55.6,44.8,30.09,NNE,18,0.0,12.0,67,0.00,,,0.00,Wunderground v.1.13,2013-04-21 03:03:00,
2013-04-20 22:08:00,55.6,44.8,30.09,NNE,18,0.0,12.0,67,0.00,,,0.00,Wunderground v.1.13,2013-04-21 03:08:00,
2013-04-20 22:14:00,55.4,44.6,30.09,NNE,18,0.0,12.0,67,0.00,,,0.00,Wunderground v.1.13,2013-04-21 03:14:00,
2013-04-20 22:19:00,55.3,44.9,30.09,NNE,18,0.0,12.0,68,0.00,,,0.00,Wunderground v.1.13,2013-04-21 03:19:00,
2013-04-20 22:24:00,55.1,45.1,30.10,NNE,18,0.0,12.0,69,0.00,,,0.00,Wunderground v.1.13,2013-04-21 03:24:00,
2013-04-20 22:30:00,55.0,45.0,30.10,NNE,18,0.0,12.0,69,0.00,,,0.00,Wunderground v.1.13,2013-04-21 03:30:00,
2013-04-20 22:35:00,55.0,45.4,30.10,NNE,18,0.0,12.0,70,0.00,,,0.00,Wunderground v.1.13,2013-04-21 03:35:00,
2013-04-20 22:40:00,54.8,45.6,30.10,NNE,18,0.0,12.0,71,0.00,,,0.00,Wunderground v.1.13,2013-04-21 03:40:00,
2013-04-20 22:46:00,54.7,45.5,30.10,NNE,18,0.0,12.0,71,0.00,,,0.00,Wunderground v.1.13,2013-04-21 03:46:00,
2013-04-20 22:52:00,54.5,45.7,30.10,NNE,18,0.0,12.0,72,0.00,,,0.00,Wunderground v.1.13,2013-04-21 03:52:00,
2013-04-20 22:57:00,54.5,46.0,30.10,NNE,18,0.0,12.0,73,0.00,,,0.00,Wunderground v.1.13,2013-04-21 03:57:00,
2013-04-20 23:01:00,54.4,45.9,30.10,NNE,18,0.0,12.0,73,0.00,,,0.00,Wunderground v.1.13,2013-04-21 04:01:00,
2013-04-20 23:02:00,54.4,45.9,30.10,NNE,18,0.0,12.0,73,0.00,,,0.00,Wunderground v.1.13,2013-04-21 04:02:00,
2013-04-20 23:04:00,54.4,45.9,30.10,NNE,18,0.0,12.0,73,0.00,,,0.00,Wunderground v.1.13,2013-04-21 04:04:00,
2013-04-20 23:05:00,54.4,45.9,30.10,NNE,18,0.0,12.0,73,0.00,,,0.00,Wunderground v.1.13,2013-04-21 04:05:00,
2013-04-20 23:10:00,54.2,45.7,30.10,NNE,18,0.0,12.0,73,0.00,,,0.00,Wunderground v.1.13,2013-04-21 04:10:00,
2013-04-20 23:15:00,54.1,46.0,30.10,NNE,18,0.0,12.0,74,0.00,,,0.00,Wunderground v.1.13,2013-04-21 04:15:00,
2013-04-20 23:21:00,54.1,46.0,30.10,NNE,18,0.0,12.0,74,0.00,,,0.00,Wunderground v.1.13,2013-04-21 04:21:00,
2013-04-20 23:26:00,53.9,45.8,30.10,NNE,18,0.0,12.0,74,0.00,,,0.00,Wunderground v.1.13,2013-04-21 04:26:00,
2013-04-20 23:31:00,53.9,46.2,30.10,NNE,18,0.0,12.0,75,0.00,,,0.00,Wunderground v.1.13,2013-04-21 04:31:00,
2013-04-20 23:36:00,53.9,45.8,30.10,NNE,18,0.0,12.0,74,0.00,,,0.00,Wunderground v.1.13,2013-04-21 04:36:00,
2013-04-20 23:42:00,53.8,45.7,30.10,NNE,18,0.0,12.0,74,0.00,,,0.00,Wunderground v.1.13,2013-04-21 04:42:00,
2013-04-20 23:47:00,53.6,45.5,30.10,NNE,18,0.0,12.0,74,0.00,,,0.00,Wunderground v.1.13,2013-04-21 04:47:00,
2013-04-20 23:52:00,53.6,45.5,30.10,NNE,18,0.0,12.0,74,0.00,,,0.00,Wunderground v.1.13,2013-04-21 04:52:00,
2013-04-20 23:58:00,53.6,45.5,30.10,NNE,18,0.0,12.0,74,0.00,,,0.00,Wunderground v.1.13,2013-04-21 04:58:00,